New Taiton, Texas
Current Conditions -  °F | °C
As of 9:35 AM on Monday 24 Nov 2014 (Local Time) from KARM Reporting Station
Clear Clear  
Wind Chill: 56°   Ceiling: Unl
Heat Index: 56°   Visibility: 10mi
Dew Point: 38°   Wind: 18mph
Humidity: 51%   Direction: 360°N
Pressure: 30.06"   Gusts: 22mph
Location:  29.1916°N, 96.2212°W
Report Text: KARM 241535Z AUTO 36016G19KT 10SM CLR 14/04 A3006 RMK AO2 T01360036
Loading
Personal Weather Stations






























Interactive Weather Map New forecast layout! Learn more

10-Day Weather Forecast

Advertisements
Track Severe Weather on mobile